sensor_id;sensor_type;location;lat;lon;timestamp;pressure;altitude;pressure_sealevel;temperature;humidity
13068;BME280;6600;51.362;6.686;2023-08-12T00:01:26;101378.22;;;22.39;100.00
13068;BME280;6600;51.362;6.686;2023-08-12T00:03:52;101388.63;;;22.22;100.00
13068;BME280;6600;51.362;6.686;2023-08-12T00:06:17;101389.19;;;22.19;100.00
13068;BME280;6600;51.362;6.686;2023-08-12T00:08:42;101391.94;;;22.19;100.00
13068;BME280;6600;51.362;6.686;2023-08-12T00:11:08;101385.38;;;22.15;100.00
13068;BME280;6600;51.362;6.686;2023-08-12T00:13:33;101384.28;;;22.16;100.00
13068;BME280;6600;51.362;6.686;2023-08-12T00:15:59;101370.66;;;22.16;100.00
13068;BME280;6600;51.362;6.686;2023-08-12T00:18:24;101371.19;;;22.13;100.00
13068;BME280;6600;51.362;6.686;2023-08-12T00:20:49;101368.75;;;22.11;100.00
13068;BME280;6600;51.362;6.686;2023-08-12T00:23:15;101369.00;;;22.10;100.00
13068;BME280;6600;51.362;6.686;2023-08-12T00:25:40;101362.47;;;22.11;100.00
13068;BME280;6600;51.362;6.686;2023-08-12T00:28:06;101358.63;;;22.12;100.00
13068;BME280;6600;51.362;6.686;2023-08-12T00:30:31;101352.09;;;22.08;100.00
13068;BME280;6600;51.362;6.686;2023-08-12T00:32:56;101348.84;;;22.06;100.00
13068;BME280;6600;51.362;6.686;2023-08-12T00:35:21;101353.47;;;22.05;100.00
13068;BME280;6600;51.362;6.686;2023-08-12T00:37:47;101347.47;;;22.08;100.00
13068;BME280;6600;51.362;6.686;2023-08-12T00:40:12;101358.09;;;22.10;100.00
13068;BME280;6600;51.362;6.686;2023-08-12T00:42:38;101357.03;;;22.06;100.00
13068;BME280;6600;51.362;6.686;2023-08-12T00:45:09;101350.94;;;22.24;100.00
13068;BME280;6600;51.362;6.686;2023-08-12T00:47:35;101352.13;;;22.03;100.00
13068;BME280;6600;51.362;6.686;2023-08-12T00:50:00;101351.56;;;22.01;100.00
13068;BME280;6600;51.362;6.686;2023-08-12T00:52:26;101339.50;;;22.17;100.00
13068;BME280;6600;51.362;6.686;2023-08-12T00:54:52;101339.28;;;22.08;100.00
13068;BME280;6600;51.362;6.686;2023-08-12T00:57:17;101337.34;;;22.14;100.00
13068;BME280;6600;51.362;6.686;2023-08-12T00:59:44;101341.19;;;22.13;100.00
13068;BME280;6600;51.362;6.686;2023-08-12T01:02:11;101342.53;;;22.10;100.00
13068;BME280;6600;51.362;6.686;2023-08-12T01:04:36;101345.00;;;22.12;100.00
13068;BME280;6600;51.362;6.686;2023-08-12T01:07:02;101342.25;;;22.07;100.00
13068;BME280;6600;51.362;6.686;2023-08-12T01:09:28;101340.09;;;22.09;100.00
13068;BME280;6600;51.362;6.686;2023-08-12T01:12:08;101326.97;;;22.11;100.00
13068;BME280;6600;51.362;6.686;2023-08-12T01:14:46;101320.69;;;22.10;100.00
13068;BME280;6600;51.362;6.686;2023-08-12T01:17:14;101325.06;;;22.11;100.00
13068;BME280;6600;51.362;6.686;2023-08-12T01:19:41;101318.56;;;22.02;100.00
13068;BME280;6600;51.362;6.686;2023-08-12T01:22:10;101322.66;;;21.90;100.00
13068;BME280;6600;51.362;6.686;2023-08-12T01:24:37;101328.09;;;21.85;100.00
13068;BME280;6600;51.362;6.686;2023-08-12T01:27:04;101330.25;;;22.08;100.00
13068;BME280;6600;51.362;6.686;2023-08-12T01:29:30;101327.03;;;21.91;100.00
13068;BME280;6600;51.362;6.686;2023-08-12T01:32:04;101319.91;;;21.85;100.00
13068;BME280;6600;51.362;6.686;2023-08-12T01:37:19;101324.00;;;21.87;100.00
13068;BME280;6600;51.362;6.686;2023-08-12T01:39:48;101316.09;;;21.81;100.00
13068;BME280;6600;51.362;6.686;2023-08-12T01:42:15;101311.47;;;21.81;100.00
13068;BME280;6600;51.362;6.686;2023-08-12T01:44:41;101309.56;;;21.82;100.00
13068;BME280;6600;51.362;6.686;2023-08-12T01:47:08;101300.56;;;21.81;100.00
13068;BME280;6600;51.362;6.686;2023-08-12T01:49:34;101307.38;;;21.89;100.00
13068;BME280;6600;51.362;6.686;2023-08-12T01:51:59;101296.75;;;21.82;100.00
13068;BME280;6600;51.362;6.686;2023-08-12T01:54:24;101298.91;;;21.90;100.00
13068;BME280;6600;51.362;6.686;2023-08-12T01:56:50;101297.00;;;21.86;100.00
13068;BME280;6600;51.362;6.686;2023-08-12T01:59:15;101293.47;;;21.90;100.00
13068;BME280;6600;51.362;6.686;2023-08-12T02:01:40;101291.00;;;21.89;100.00
13068;BME280;6600;51.362;6.686;2023-08-12T02:04:06;101297.00;;;21.86;100.00
13068;BME280;6600;51.362;6.686;2023-08-12T02:06:31;101289.38;;;21.78;100.00
13068;BME280;6600;51.362;6.686;2023-08-12T02:08:56;101277.91;;;21.76;100.00
13068;BME280;6600;51.362;6.686;2023-08-12T02:11:22;101289.91;;;21.95;100.00
13068;BME280;6600;51.362;6.686;2023-08-12T02:13:47;101282.81;;;21.84;100.00
13068;BME280;6600;51.362;6.686;2023-08-12T02:16:12;101282.00;;;21.93;100.00
13068;BME280;6600;51.362;6.686;2023-08-12T02:18:37;101280.63;;;21.81;100.00
13068;BME280;6600;51.362;6.686;2023-08-12T02:21:03;101282.81;;;21.89;100.00
13068;BME280;6600;51.362;6.686;2023-08-12T02:23:28;101282.81;;;21.84;100.00
13068;BME280;6600;51.362;6.686;2023-08-12T02:25:53;101276.25;;;21.95;100.00
13068;BME280;6600;51.362;6.686;2023-08-12T02:28:19;101274.09;;;21.92;100.00
13068;BME280;6600;51.362;6.686;2023-08-12T02:30:45;101275.72;;;21.78;100.00
13068;BME280;6600;51.362;6.686;2023-08-12T02:33:10;101275.72;;;21.73;100.00
13068;BME280;6600;51.362;6.686;2023-08-12T02:35:35;101271.38;;;21.77;100.00
13068;BME280;6600;51.362;6.686;2023-08-12T02:38:01;101265.38;;;21.75;100.00
13068;BME280;6600;51.362;6.686;2023-08-12T02:40:26;101266.47;;;21.79;100.00
13068;BME280;6600;51.362;6.686;2023-08-12T02:42:51;101269.72;;;21.76;100.00
13068;BME280;6600;51.362;6.686;2023-08-12T02:45:17;101261.81;;;21.79;100.00
13068;BME280;6600;51.362;6.686;2023-08-12T02:47:42;101259.91;;;21.80;100.00
13068;BME280;6600;51.362;6.686;2023-08-12T02:50:08;101261.56;;;21.71;100.00
13068;BME280;6600;51.362;6.686;2023-08-12T02:52:33;101258.28;;;21.68;100.00
13068;BME280;6600;51.362;6.686;2023-08-12T02:54:58;101265.34;;;21.80;100.00
13068;BME280;6600;51.362;6.686;2023-08-12T02:57:24;101261.28;;;21.72;100.00
13068;BME280;6600;51.362;6.686;2023-08-12T02:59:49;101256.63;;;21.73;100.00
13068;BME280;6600;51.362;6.686;2023-08-12T03:02:14;101252.81;;;21.79;100.00
13068;BME280;6600;51.362;6.686;2023-08-12T03:04:41;101252.28;;;21.82;100.00
13068;BME280;6600;51.362;6.686;2023-08-12T03:07:06;101247.06;;;21.85;100.00
13068;BME280;6600;51.362;6.686;2023-08-12T03:09:32;101244.34;;;21.80;100.00
13068;BME280;6600;51.362;6.686;2023-08-12T03:11:57;101242.44;;;21.81;100.00
13068;BME280;6600;51.362;6.686;2023-08-12T03:14:26;101238.66;;;21.72;100.00
13068;BME280;6600;51.362;6.686;2023-08-12T03:16:52;101236.97;;;21.86;100.00
13068;BME280;6600;51.362;6.686;2023-08-12T03:19:17;101231.53;;;21.81;100.00
13068;BME280;6600;51.362;6.686;2023-08-12T03:21:43;101228.25;;;21.84;100.00
13068;BME280;6600;51.362;6.686;2023-08-12T03:24:08;101228.25;;;21.84;100.00
13068;BME280;6600;51.362;6.686;2023-08-12T03:26:33;101221.69;;;21.80;100.00
13068;BME280;6600;51.362;6.686;2023-08-12T03:28:59;101226.63;;;21.78;100.00
13068;BME280;6600;51.362;6.686;2023-08-12T03:31:24;101229.34;;;21.78;100.00
13068;BME280;6600;51.362;6.686;2023-08-12T03:33:49;101223.91;;;21.78;100.00
13068;BME280;6600;51.362;6.686;2023-08-12T03:36:15;101221.16;;;21.83;100.00
13068;BME280;6600;51.362;6.686;2023-08-12T03:38:40;101219.53;;;21.82;100.00
13068;BME280;6600;51.362;6.686;2023-08-12T03:41:06;101228.81;;;21.81;100.00
13068;BME280;6600;51.362;6.686;2023-08-12T03:43:32;101213.50;;;21.85;100.00
13068;BME280;6600;51.362;6.686;2023-08-12T03:45:58;101217.31;;;21.84;100.00
13068;BME280;6600;51.362;6.686;2023-08-12T03:48:24;101210.50;;;21.86;100.00
13068;BME280;6600;51.362;6.686;2023-08-12T03:50:49;101212.94;;;21.88;100.00
13068;BME280;6600;51.362;6.686;2023-08-12T03:53:14;101206.16;;;21.80;100.00
13068;BME280;6600;51.362;6.686;2023-08-12T03:55:41;101199.88;;;21.80;100.00
13068;BME280;6600;51.362;6.686;2023-08-12T03:58:06;101182.97;;;21.78;100.00
13068;BME280;6600;51.362;6.686;2023-08-12T04:00:31;101191.16;;;21.78;100.00
13068;BME280;6600;51.362;6.686;2023-08-12T04:02:57;101190.09;;;21.74;100.00
13068;BME280;6600;51.362;6.686;2023-08-12T04:05:22;101185.16;;;21.76;100.00
13068;BME280;6600;51.362;6.686;2023-08-12T04:07:48;101181.34;;;21.82;100.00
13068;BME280;6600;51.362;6.686;2023-08-12T04:10:13;101178.06;;;21.80;100.00
13068;BME280;6600;51.362;6.686;2023-08-12T04:12:40;101170.44;;;21.82;100.00
13068;BME280;6600;51.362;6.686;2023-08-12T04:15:07;101174.81;;;21.78;100.00
13068;BME280;6600;51.362;6.686;2023-08-12T04:17:32;101178.09;;;21.75;100.00
13068;BME280;6600;51.362;6.686;2023-08-12T04:19:57;101177.53;;;21.73;100.00
13068;BME280;6600;51.362;6.686;2023-08-12T04:22:23;101182.16;;;21.72;100.00
13068;BME280;6600;51.362;6.686;2023-08-12T04:24:48;101172.13;;;21.62;100.00
13068;BME280;6600;51.362;6.686;2023-08-12T04:27:14;101170.50;;;21.61;100.00
13068;BME280;6600;51.362;6.686;2023-08-12T04:29:41;101169.94;;;21.64;100.00
13068;BME280;6600;51.362;6.686;2023-08-12T04:32:07;101166.91;;;21.66;100.00
13068;BME280;6600;51.362;6.686;2023-08-12T04:34:32;101169.69;;;21.61;100.00
13068;BME280;6600;51.362;6.686;2023-08-12T04:36:57;101162.28;;;21.66;100.00
13068;BME280;6600;51.362;6.686;2023-08-12T04:39:23;101155.50;;;21.59;100.00
13068;BME280;6600;51.362;6.686;2023-08-12T04:41:48;101149.22;;;21.58;100.00
13068;BME280;6600;51.362;6.686;2023-08-12T04:44:13;101154.66;;;21.63;100.00
13068;BME280;6600;51.362;6.686;2023-08-12T04:46:39;101155.19;;;21.65;100.00
13068;BME280;6600;51.362;6.686;2023-08-12T04:49:04;101145.38;;;21.70;100.00
13068;BME280;6600;51.362;6.686;2023-08-12T04:51:30;101146.19;;;21.75;100.00
13068;BME280;6600;51.362;6.686;2023-08-12T04:53:55;101158.69;;;21.76;100.00
13068;BME280;6600;51.362;6.686;2023-08-12T04:56:21;101141.22;;;21.92;100.00
13068;BME280;6600;51.362;6.686;2023-08-12T04:58:46;101135.47;;;21.94;100.00
13068;BME280;6600;51.362;6.686;2023-08-12T05:01:11;101144.22;;;21.96;100.00
13068;BME280;6600;51.362;6.686;2023-08-12T05:03:37;101140.34;;;21.97;100.00
13068;BME280;6600;51.362;6.686;2023-08-12T05:06:03;101143.63;;;21.99;100.00
13068;BME280;6600;51.362;6.686;2023-08-12T05:08:28;101139.28;;;21.93;100.00
13068;BME280;6600;51.362;6.686;2023-08-12T05:10:53;101144.75;;;21.88;100.00
13068;BME280;6600;51.362;6.686;2023-08-12T05:13:19;101141.50;;;21.91;100.00
13068;BME280;6600;51.362;6.686;2023-08-12T05:15:48;101137.13;;;21.90;100.00
13068;BME280;6600;51.362;6.686;2023-08-12T05:18:13;101142.56;;;21.95;100.00
13068;BME280;6600;51.362;6.686;2023-08-12T05:20:40;101143.66;;;21.89;100.00
13068;BME280;6600;51.362;6.686;2023-08-12T05:23:06;101135.75;;;21.92;100.00
13068;BME280;6600;51.362;6.686;2023-08-12T05:25:31;101140.41;;;21.92;100.00
13068;BME280;6600;51.362;6.686;2023-08-12T05:27:56;101137.13;;;21.80;100.00
13068;BME280;6600;51.362;6.686;2023-08-12T05:30:22;101132.53;;;21.75;100.00
13068;BME280;6600;51.362;6.686;2023-08-12T05:32:47;101131.41;;;21.76;100.00
13068;BME280;6600;51.362;6.686;2023-08-12T05:35:12;101115.34;;;21.75;100.00
13068;BME280;6600;51.362;6.686;2023-08-12T05:37:38;101119.13;;;21.84;100.00
13068;BME280;6600;51.362;6.686;2023-08-12T05:40:03;101116.94;;;21.81;100.00
13068;BME280;6600;51.362;6.686;2023-08-12T05:42:33;101119.69;;;21.81;100.00
13068;BME280;6600;51.362;6.686;2023-08-12T05:44:58;101117.78;;;21.76;100.00
13068;BME280;6600;51.362;6.686;2023-08-12T05:47:23;101119.69;;;21.76;100.00
13068;BME280;6600;51.362;6.686;2023-08-12T05:49:49;101124.88;;;21.82;100.00
13068;BME280;6600;51.362;6.686;2023-08-12T05:52:14;101122.06;;;22.02;100.00
13068;BME280;6600;51.362;6.686;2023-08-12T05:54:39;101121.84;;;21.89;100.00
13068;BME280;6600;51.362;6.686;2023-08-12T05:57:05;101116.38;;;21.89;100.00
13068;BME280;6600;51.362;6.686;2023-08-12T05:59:30;101113.97;;;21.82;100.00
13068;BME280;6600;51.362;6.686;2023-08-12T06:01:55;101118.28;;;21.83;100.00
13068;BME280;6600;51.362;6.686;2023-08-12T06:04:21;101116.94;;;21.86;100.00
13068;BME280;6600;51.362;6.686;2023-08-12T06:06:46;101125.63;;;21.93;100.00
13068;BME280;6600;51.362;6.686;2023-08-12T06:09:11;101130.56;;;21.91;100.00
13068;BME280;6600;51.362;6.686;2023-08-12T06:11:37;101127.28;;;21.89;100.00
13068;BME280;6600;51.362;6.686;2023-08-12T06:14:02;101128.38;;;21.83;100.00
13068;BME280;6600;51.362;6.686;2023-08-12T06:16:27;101126.19;;;21.90;100.00
13068;BME280;6600;51.362;6.686;2023-08-12T06:18:53;101122.72;;;21.69;100.00
13068;BME280;6600;51.362;6.686;2023-08-12T06:21:18;101123.25;;;21.76;100.00
13068;BME280;6600;51.362;6.686;2023-08-12T06:23:43;101118.03;;;21.80;100.00
13068;BME280;6600;51.362;6.686;2023-08-12T06:26:09;101113.41;;;21.80;100.00
13068;BME280;6600;51.362;6.686;2023-08-12T06:28:34;101114.50;;;21.79;100.00
13068;BME280;6600;51.362;6.686;2023-08-12T06:30:59;101109.84;;;21.85;100.00
13068;BME280;6600;51.362;6.686;2023-08-12T06:33:25;101109.84;;;21.80;100.00
13068;BME280;6600;51.362;6.686;2023-08-12T06:35:50;101100.56;;;21.86;100.00
13068;BME280;6600;51.362;6.686;2023-08-12T06:38:16;101092.97;;;21.78;100.00
13068;BME280;6600;51.362;6.686;2023-08-12T06:40:41;101094.31;;;21.80;100.00
13068;BME280;6600;51.362;6.686;2023-08-12T06:43:06;101101.38;;;21.86;100.00
13068;BME280;6600;51.362;6.686;2023-08-12T06:45:34;101097.84;;;21.91;100.00
13068;BME280;6600;51.362;6.686;2023-08-12T06:47:59;101093.22;;;21.81;100.00
13068;BME280;6600;51.362;6.686;2023-08-12T06:50:24;101096.25;;;21.75;100.00
13068;BME280;6600;51.362;6.686;2023-08-12T06:52:50;101093.00;;;21.67;100.00
13068;BME280;6600;51.362;6.686;2023-08-12T06:55:15;101081.25;;;21.72;100.00
13068;BME280;6600;51.362;6.686;2023-08-12T06:57:40;101079.03;;;21.79;100.00
13068;BME280;6600;51.362;6.686;2023-08-12T07:00:06;101091.88;;;21.74;100.00
13068;BME280;6600;51.362;6.686;2023-08-12T07:02:31;101083.97;;;21.72;100.00
13068;BME280;6600;51.362;6.686;2023-08-12T07:04:57;101089.16;;;21.79;100.00
13068;BME280;6600;51.362;6.686;2023-08-12T07:07:22;101079.63;;;21.71;100.00
13068;BME280;6600;51.362;6.686;2023-08-12T07:09:48;101083.72;;;21.68;100.00
13068;BME280;6600;51.362;6.686;2023-08-12T07:12:13;101071.16;;;21.78;100.00
13068;BME280;6600;51.362;6.686;2023-08-12T07:14:38;101076.03;;;21.81;100.00
13068;BME280;6600;51.362;6.686;2023-08-12T07:17:04;101073.56;;;21.79;100.00
13068;BME280;6600;51.362;6.686;2023-08-12T07:19:29;101082.56;;;21.85;100.00
13068;BME280;6600;51.362;6.686;2023-08-12T07:21:54;101078.44;;;21.87;100.00
13068;BME280;6600;51.362;6.686;2023-08-12T07:24:20;101077.94;;;21.85;100.00
13068;BME280;6600;51.362;6.686;2023-08-12T07:26:45;101088.81;;;21.95;100.00
13068;BME280;6600;51.362;6.686;2023-08-12T07:29:10;101090.69;;;22.00;100.00
13068;BME280;6600;51.362;6.686;2023-08-12T07:31:35;101090.09;;;22.08;100.00
13068;BME280;6600;51.362;6.686;2023-08-12T07:34:01;101086.84;;;22.01;100.00
13068;BME280;6600;51.362;6.686;2023-08-12T07:36:26;101090.16;;;21.93;100.00
13068;BME280;6600;51.362;6.686;2023-08-12T07:38:52;101095.03;;;22.06;100.00
13068;BME280;6600;51.362;6.686;2023-08-12T07:41:17;101091.19;;;22.07;100.00
13068;BME280;6600;51.362;6.686;2023-08-12T07:43:43;101090.56;;;22.20;100.00
13068;BME280;6600;51.362;6.686;2023-08-12T07:46:08;101081.81;;;22.23;100.00
13068;BME280;6600;51.362;6.686;2023-08-12T07:48:33;101089.44;;;22.26;100.00
13068;BME280;6600;51.362;6.686;2023-08-12T07:50:59;101086.13;;;22.29;100.00
13068;BME280;6600;51.362;6.686;2023-08-12T07:53:25;101086.06;;;22.34;100.00
13068;BME280;6600;51.362;6.686;2023-08-12T07:55:51;101078.94;;;22.43;100.00
13068;BME280;6600;51.362;6.686;2023-08-12T07:58:16;101076.47;;;22.42;100.00
13068;BME280;6600;51.362;6.686;2023-08-12T08:00:42;101083.16;;;22.59;100.00
13068;BME280;6600;51.362;6.686;2023-08-12T08:03:07;101081.50;;;22.58;100.00
13068;BME280;6600;51.362;6.686;2023-08-12T08:05:33;101072.88;;;22.46;100.00
13068;BME280;6600;51.362;6.686;2023-08-12T08:07:58;101064.22;;;22.39;100.00
13068;BME280;6600;51.362;6.686;2023-08-12T08:10:23;101073.47;;;22.43;100.00
13068;BME280;6600;51.362;6.686;2023-08-12T08:12:49;101072.88;;;22.46;100.00
13068;BME280;6600;51.362;6.686;2023-08-12T08:15:14;101078.34;;;22.46;100.00
13068;BME280;6600;51.362;6.686;2023-08-12T08:17:39;101063.59;;;22.47;100.00
13068;BME280;6600;51.362;6.686;2023-08-12T08:20:05;101069.56;;;22.54;100.00
13068;BME280;6600;51.362;6.686;2023-08-12T08:22:32;101071.38;;;22.64;100.00
13068;BME280;6600;51.362;6.686;2023-08-12T08:24:57;101068.97;;;22.57;100.00
13068;BME280;6600;51.362;6.686;2023-08-12T08:27:22;101071.34;;;22.69;100.00
13068;BME280;6600;51.362;6.686;2023-08-12T08:29:48;101067.75;;;22.74;100.00
13068;BME280;6600;51.362;6.686;2023-08-12T08:32:13;101078.69;;;22.74;100.00
13068;BME280;6600;51.362;6.686;2023-08-12T08:34:39;101072.75;;;22.67;100.00
13068;BME280;6600;51.362;6.686;2023-08-12T08:37:04;101061.25;;;22.70;100.00
13068;BME280;6600;51.362;6.686;2023-08-12T08:39:30;101056.84;;;22.74;100.00
13068;BME280;6600;51.362;6.686;2023-08-12T08:41:56;101071.22;;;22.84;100.00
13068;BME280;6600;51.362;6.686;2023-08-12T08:44:23;101072.66;;;22.77;100.00
13068;BME280;6600;51.362;6.686;2023-08-12T08:46:52;101058.13;;;22.81;100.00
13068;BME280;6600;51.362;6.686;2023-08-12T08:49:19;101056.38;;;22.90;100.00
13068;BME280;6600;51.362;6.686;2023-08-12T08:51:46;101069.44;;;22.98;100.00
13068;BME280;6600;51.362;6.686;2023-08-12T08:54:12;101068.56;;;23.03;100.00
13068;BME280;6600;51.362;6.686;2023-08-12T08:56:38;101064.78;;;22.70;100.00
13068;BME280;6600;51.362;6.686;2023-08-12T08:59:04;101066.28;;;22.52;100.00
13068;BME280;6600;51.362;6.686;2023-08-12T09:01:30;101075.44;;;22.72;100.00
13068;BME280;6600;51.362;6.686;2023-08-12T09:03:57;101076.28;;;22.62;100.00
13068;BME280;6600;51.362;6.686;2023-08-12T09:06:25;101084.81;;;22.55;100.00
13068;BME280;6600;51.362;6.686;2023-08-12T09:08:54;101080.47;;;22.54;100.00
13068;BME280;6600;51.362;6.686;2023-08-12T09:11:19;101077.78;;;22.49;100.00
13068;BME280;6600;51.362;6.686;2023-08-12T09:13:46;101073.22;;;22.40;100.00
13068;BME280;6600;51.362;6.686;2023-08-12T09:16:11;101067.75;;;22.40;100.00
13068;BME280;6600;51.362;6.686;2023-08-12T09:18:37;101068.56;;;22.40;100.00
13068;BME280;6600;51.362;6.686;2023-08-12T09:21:03;101084.31;;;22.53;100.00
13068;BME280;6600;51.362;6.686;2023-08-12T09:23:34;101082.75;;;22.42;100.00
13068;BME280;6600;51.362;6.686;2023-08-12T09:26:01;101089.28;;;22.46;100.00
13068;BME280;6600;51.362;6.686;2023-08-12T09:28:26;101098.06;;;22.38;100.00
13068;BME280;6600;51.362;6.686;2023-08-12T09:30:51;101088.78;;;22.39;100.00
13068;BME280;6600;51.362;6.686;2023-08-12T09:33:25;101098.06;;;22.38;100.00
13068;BME280;6600;51.362;6.686;2023-08-12T09:35:54;101092.66;;;22.33;100.00
13068;BME280;6600;51.362;6.686;2023-08-12T09:38:22;101095.63;;;22.37;100.00
13068;BME280;6600;51.362;6.686;2023-08-12T09:40:48;101091.59;;;22.63;100.00
13068;BME280;6600;51.362;6.686;2023-08-12T09:43:13;101097.91;;;22.58;100.00
13068;BME280;6600;51.362;6.686;2023-08-12T09:45:38;101102.56;;;22.58;100.00
13068;BME280;6600;51.362;6.686;2023-08-12T09:48:04;101099.47;;;22.70;100.00
13068;BME280;6600;51.362;6.686;2023-08-12T09:50:30;101097.91;;;22.58;100.00
13068;BME280;6600;51.362;6.686;2023-08-12T09:52:56;101086.44;;;22.61;100.00
13068;BME280;6600;51.362;6.686;2023-08-12T09:55:23;101099.94;;;22.82;100.00
13068;BME280;6600;51.362;6.686;2023-08-12T09:57:54;101092.25;;;22.84;100.00
13068;BME280;6600;51.362;6.686;2023-08-12T10:00:22;101091.44;;;23.12;100.00
13068;BME280;6600;51.362;6.686;2023-08-12T10:02:50;101090.44;;;23.27;100.00
13068;BME280;6600;51.362;6.686;2023-08-12T10:05:32;101092.25;;;23.36;100.00
13068;BME280;6600;51.362;6.686;2023-08-12T10:07:59;101093.06;;;23.13;100.00
13068;BME280;6600;51.362;6.686;2023-08-12T10:10:27;101084.88;;;23.13;100.00
13068;BME280;6600;51.362;6.686;2023-08-12T10:12:53;101083.22;;;23.12;100.00
13068;BME280;6600;51.362;6.686;2023-08-12T10:15:19;101087.38;;;23.33;100.00
13068;BME280;6600;51.362;6.686;2023-08-12T10:17:45;101087.38;;;23.33;100.00
13068;BME280;6600;51.362;6.686;2023-08-12T10:20:20;101094.69;;;23.38;100.00
13068;BME280;6600;51.362;6.686;2023-08-12T10:22:46;101094.16;;;23.41;100.00
13068;BME280;6600;51.362;6.686;2023-08-12T10:25:13;101088.41;;;23.37;100.00
13068;BME280;6600;51.362;6.686;2023-08-12T10:27:39;101085.50;;;23.29;100.00
13068;BME280;6600;51.362;6.686;2023-08-12T10:30:05;101089.91;;;23.25;100.00
13068;BME280;6600;51.362;6.686;2023-08-12T10:34:57;101095.91;;;23.03;100.00
13068;BME280;6600;51.362;6.686;2023-08-12T10:37:24;101087.22;;;22.96;100.00
13068;BME280;6600;51.362;6.686;2023-08-12T10:39:50;101081.28;;;22.89;100.00
13068;BME280;6600;51.362;6.686;2023-08-12T10:42:42;101076.81;;;22.98;100.00
13068;BME280;6600;51.362;6.686;2023-08-12T10:45:08;101075.59;;;23.09;100.00
13068;BME280;6600;51.362;6.686;2023-08-12T10:47:39;101079.63;;;23.17;100.00
13068;BME280;6600;51.362;6.686;2023-08-12T10:50:05;101073.47;;;23.06;100.00
13068;BME280;6600;51.362;6.686;2023-08-12T10:52:33;101069.44;;;23.22;100.00
13068;BME280;6600;51.362;6.686;2023-08-12T10:55:27;101081.00;;;23.43;100.00
13068;BME280;6600;51.362;6.686;2023-08-12T10:57:54;101074.56;;;23.52;100.00
13068;BME280;6600;51.362;6.686;2023-08-12T11:00:24;101077.25;;;23.57;100.00
13068;BME280;6600;51.362;6.686;2023-08-12T11:02:52;101076.66;;;23.60;100.00
13068;BME280;6600;51.362;6.686;2023-08-12T11:05:18;101067.28;;;23.67;100.00
13068;BME280;6600;51.362;6.686;2023-08-12T11:07:48;101067.00;;;23.68;100.00
13068;BME280;6600;51.362;6.686;2023-08-12T11:10:20;101067.44;;;23.75;100.00
13068;BME280;6600;51.362;6.686;2023-08-12T11:17:55;101055.81;;;23.64;100.00
13068;BME280;6600;51.362;6.686;2023-08-12T11:20:20;101055.81;;;23.64;100.00
13068;BME280;6600;51.362;6.686;2023-08-12T11:22:46;101052.31;;;23.59;100.00
13068;BME280;6600;51.362;6.686;2023-08-12T11:25:13;101046.50;;;23.65;100.00
13068;BME280;6600;51.362;6.686;2023-08-12T11:27:43;101055.75;;;23.70;100.00
13068;BME280;6600;51.362;6.686;2023-08-12T11:30:10;101048.88;;;23.91;100.00
13068;BME280;6600;51.362;6.686;2023-08-12T11:32:39;101040.31;;;24.16;100.00
13068;BME280;6600;51.362;6.686;2023-08-12T11:35:07;101051.09;;;24.26;100.00
13068;BME280;6600;51.362;6.686;2023-08-12T11:37:35;101043.22;;;24.38;100.00
13068;BME280;6600;51.362;6.686;2023-08-12T11:40:02;101054.94;;;24.25;100.00
13068;BME280;6600;51.362;6.686;2023-08-12T11:42:28;101060.28;;;23.98;100.00
13068;BME280;6600;51.362;6.686;2023-08-12T11:44:53;101061.44;;;23.54;100.00
13068;BME280;6600;51.362;6.686;2023-08-12T11:47:19;101053.66;;;23.14;100.00
13068;BME280;6600;51.362;6.686;2023-08-12T11:49:44;101059.53;;;22.79;100.00
13068;BME280;6600;51.362;6.686;2023-08-12T11:52:10;101066.03;;;22.83;100.00
13068;BME280;6600;51.362;6.686;2023-08-12T11:54:36;101056.91;;;22.63;100.00
13068;BME280;6600;51.362;6.686;2023-08-12T11:57:02;101061.81;;;22.67;100.00
13068;BME280;6600;51.362;6.686;2023-08-12T11:59:28;101073.38;;;22.53;100.00
13068;BME280;6600;51.362;6.686;2023-08-12T12:01:54;101063.38;;;22.44;100.00
13068;BME280;6600;51.362;6.686;2023-08-12T12:04:20;101060.41;;;22.35;100.00
13068;BME280;6600;51.362;6.686;2023-08-12T12:06:46;101070.09;;;22.51;100.00
13068;BME280;6600;51.362;6.686;2023-08-12T12:09:12;101060.31;;;22.45;100.00
13068;BME280;6600;51.362;6.686;2023-08-12T12:11:39;101062.38;;;22.63;100.00
13068;BME280;6600;51.362;6.686;2023-08-12T12:14:07;101065.09;;;22.63;100.00
13068;BME280;6600;51.362;6.686;2023-08-12T12:16:47;101064.00;;;22.64;100.00
13068;BME280;6600;51.362;6.686;2023-08-12T12:19:18;101067.81;;;22.63;100.00
13068;BME280;6600;51.362;6.686;2023-08-12T12:21:51;101062.88;;;22.65;100.00
13068;BME280;6600;51.362;6.686;2023-08-12T12:24:18;101066.44;;;22.66;100.00
13068;BME280;6600;51.362;6.686;2023-08-12T12:26:47;101078.22;;;22.67;100.00
13068;BME280;6600;51.362;6.686;2023-08-12T12:29:13;101077.03;;;22.73;100.00
13068;BME280;6600;51.362;6.686;2023-08-12T12:31:39;101076.41;;;22.86;100.00
13068;BME280;6600;51.362;6.686;2023-08-12T12:34:06;101078.56;;;22.89;100.00
13068;BME280;6600;51.362;6.686;2023-08-12T12:36:34;101080.72;;;22.92;100.00
13068;BME280;6600;51.362;6.686;2023-08-12T12:39:00;101074.66;;;22.95;100.00
13068;BME280;6600;51.362;6.686;2023-08-12T12:41:26;101070.72;;;23.06;100.00
13068;BME280;6600;51.362;6.686;2023-08-12T12:43:51;101072.19;;;23.22;100.00
13068;BME280;6600;51.362;6.686;2023-08-12T12:46:17;101073.63;;;23.38;100.00
13068;BME280;6600;51.362;6.686;2023-08-12T12:48:43;101073.38;;;23.58;100.00
13068;BME280;6600;51.362;6.686;2023-08-12T12:51:08;101079.00;;;23.48;100.00
13068;BME280;6600;51.362;6.686;2023-08-12T12:53:34;101082.28;;;23.69;100.00
13068;BME280;6600;51.362;6.686;2023-08-12T12:55:59;101080.53;;;23.97;100.00